Terminal Aerodrome Forecast
Issued by NWS Wilmington, OH

Current Version | Previous Version | Graphics & Text | Print | Product List | Glossary On
Versions: 1 2 3 4 5 6 7 8 9 10 11 12 13 14 15 16 17 18 19
000
FTUS41 KILN 210140 AAB
TAFILN
TAF AMD
KILN 210140Z 2102/2124 21012KT P6SM VCTS BKN035CB OVC060
      TEMPO 2102/2104 31015G25KT 2SM TSRA OVC015CB
     FM210500 22010KT P6SM BKN035
     FM211000 26008KT P6SM BKN025
     FM211400 28011KT P6SM BKN035
     FM212300 31005KT P6SM SCT250=

USA.gov is the U.S. government's official web portal to all federal, state and local government web resources and services.